Naval Base, Virginia
Current Conditions -  °F | °C
As of 12:59 AM on Monday 26 Jan 2015 (Local Time) from KNGU Reporting Station
Clear Clear  
Wind Chill: 38°   Ceiling: Unl
Heat Index: 41°   Visibility: 10mi
Dew Point: 32°   Wind: 5mph
Humidity: 70%   Direction: 130°SE
Pressure: 29.86"   Gusts: NA
Location:  36.9343°N, 76.284°W
Report Text: KNGU 260559Z 13004KT 10SM CLR 05/00 A2986 RMK AO2 SLP112 T00500000 10094 20044 58010 $
Loading
Personal Weather Stations






























Interactive Weather Map New forecast layout! Learn more

10-Day Weather Forecast

Advertisements
Track Severe Weather on mobile